TRA47L LDZD-EHRD
Flight info
| Callsign | TRA47L |
|---|---|
| Flight time | 1h 48m |
| Altitude | 40000 |
| Route | RAVNA DCT PEVAL DCT MOBDO DCT SOTOV DCT XEBIX DCT USUDO DCT LIRSU DCT SOGRI L608 BUB Y28 HELEN |
| Aircraft | B738/M-SDE2E3FGHIJ1RWXY/LB1 |
Departure
| Time | 2026-04-29 18:09 |
|---|---|
| Airport | Zadar Airport (LDZD) |
Arrival
| Time | 2026-04-29 19:58 |
|---|---|
| Airport | Rotterdam The Hague Airport (EHRD) |
| Time | Latitude | Longitude | Altitude | Speed | Heading |
|---|---|---|---|---|---|
| 2026-04-29 17:30 | 44.09672 | 15.35436 | 261 ft | 0 kts | 325° |
| 2026-04-29 18:06 | 44.09676 | 15.35435 | 271 ft | 1 kts | 352° |
| 2026-04-29 18:07 | 44.09697 | 15.35450 | 274 ft | 6 kts | 51° |
| 2026-04-29 18:07 | 44.09722 | 15.35533 | 300 ft | 11 kts | 25° |
| 2026-04-29 18:07 | 44.09801 | 15.35535 | 299 ft | 11 kts | 356° |
| 2026-04-29 18:07 | 44.09876 | 15.35529 | 301 ft | 11 kts | 1° |
| 2026-04-29 18:08 | 44.09936 | 15.35586 | 305 ft | 11 kts | 45° |
| 2026-04-29 18:08 | 44.09985 | 15.35659 | 307 ft | 10 kts | 47° |
| 2026-04-29 18:08 | 44.10038 | 15.35721 | 304 ft | 10 kts | 8° |
| 2026-04-29 18:08 | 44.10096 | 15.35660 | 304 ft | 13 kts | 316° |
| 2026-04-29 18:09 | 44.10282 | 15.35409 | 302 ft | 75 kts | 315° |
| 2026-04-29 18:09 | 44.10841 | 15.34653 | 306 ft | 145 kts | 316° |
| 2026-04-29 18:09 | 44.11613 | 15.33632 | 913 ft | 153 kts | 318° |
| 2026-04-29 18:09 | 44.12433 | 15.32576 | 1530 ft | 175 kts | 320° |
| 2026-04-29 18:10 | 44.13378 | 15.31298 | 1963 ft | 208 kts | 319° |
| 2026-04-29 18:10 | 44.14487 | 15.29780 | 2235 ft | 236 kts | 318° |
| 2026-04-29 18:10 | 44.15707 | 15.28108 | 2634 ft | 260 kts | 317° |
| 2026-04-29 18:10 | 44.17021 | 15.26300 | 3410 ft | 269 kts | 317° |
| 2026-04-29 18:11 | 44.18422 | 15.24575 | 4443 ft | 269 kts | 318° |
| 2026-04-29 18:11 | 44.19719 | 15.22663 | 5393 ft | 273 kts | 307° |
| 2026-04-29 18:11 | 44.20892 | 15.20631 | 6552 ft | 265 kts | 306° |
| 2026-04-29 18:11 | 44.22024 | 15.18619 | 7594 ft | 264 kts | 306° |
| 2026-04-29 18:12 | 44.23163 | 15.16595 | 8535 ft | 266 kts | 306° |
| 2026-04-29 18:12 | 44.24310 | 15.14568 | 9525 ft | 267 kts | 307° |
| 2026-04-29 18:12 | 44.25469 | 15.12535 | 10415 ft | 271 kts | 306° |
| 2026-04-29 18:12 | 44.26696 | 15.10386 | 10694 ft | 297 kts | 307° |
| 2026-04-29 18:13 | 44.28033 | 15.08053 | 11080 ft | 316 kts | 307° |
| 2026-04-29 18:13 | 44.29424 | 15.05634 | 11806 ft | 322 kts | 307° |
| 2026-04-29 18:13 | 44.30833 | 15.03194 | 12703 ft | 324 kts | 307° |
| 2026-04-29 18:13 | 44.32257 | 15.00731 | 13583 ft | 329 kts | 307° |
| 2026-04-29 18:14 | 44.33705 | 14.98227 | 14382 ft | 333 kts | 307° |
| 2026-04-29 18:14 | 44.35169 | 14.95693 | 15217 ft | 336 kts | 307° |
| 2026-04-29 18:14 | 44.36644 | 14.93142 | 16081 ft | 339 kts | 307° |
| 2026-04-29 18:14 | 44.38133 | 14.90564 | 16920 ft | 343 kts | 307° |
| 2026-04-29 18:15 | 44.39638 | 14.87955 | 17744 ft | 346 kts | 307° |
| 2026-04-29 18:15 | 44.41158 | 14.85317 | 18555 ft | 350 kts | 307° |
| 2026-04-29 18:15 | 44.42692 | 14.82655 | 19274 ft | 353 kts | 307° |
| 2026-04-29 18:15 | 44.44238 | 14.79968 | 19985 ft | 356 kts | 307° |
| 2026-04-29 18:16 | 44.45796 | 14.77256 | 20668 ft | 360 kts | 307° |
| 2026-04-29 18:16 | 44.47373 | 14.74510 | 21344 ft | 364 kts | 307° |
| 2026-04-29 18:16 | 44.48965 | 14.71736 | 21993 ft | 367 kts | 307° |
| 2026-04-29 18:16 | 44.50574 | 14.68930 | 22639 ft | 371 kts | 307° |
| 2026-04-29 18:17 | 44.52199 | 14.66094 | 23284 ft | 375 kts | 307° |
| 2026-04-29 18:17 | 44.53839 | 14.63226 | 23863 ft | 379 kts | 307° |
| 2026-04-29 18:17 | 44.55467 | 14.60377 | 24400 ft | 381 kts | 307° |
| 2026-04-29 18:17 | 44.57126 | 14.57473 | 24967 ft | 383 kts | 307° |
| 2026-04-29 18:18 | 44.58794 | 14.54549 | 25503 ft | 385 kts | 307° |
| 2026-04-29 18:18 | 44.60472 | 14.51606 | 26018 ft | 387 kts | 307° |
| 2026-04-29 18:18 | 44.62160 | 14.48641 | 26527 ft | 390 kts | 307° |
| 2026-04-29 18:18 | 44.63857 | 14.45657 | 27032 ft | 392 kts | 307° |
| 2026-04-29 18:19 | 44.65564 | 14.42652 | 27530 ft | 394 kts | 307° |
| 2026-04-29 18:19 | 44.67277 | 14.39634 | 28056 ft | 396 kts | 307° |
| 2026-04-29 18:19 | 44.68993 | 14.36607 | 28577 ft | 397 kts | 307° |
| 2026-04-29 18:19 | 44.70713 | 14.33568 | 29031 ft | 399 kts | 307° |
| 2026-04-29 18:20 | 44.72447 | 14.30502 | 29457 ft | 402 kts | 307° |
| 2026-04-29 18:20 | 44.74190 | 14.27418 | 29885 ft | 404 kts | 307° |
| 2026-04-29 18:20 | 44.75942 | 14.24314 | 30279 ft | 406 kts | 307° |
| 2026-04-29 18:20 | 44.77700 | 14.21195 | 30621 ft | 408 kts | 307° |
| 2026-04-29 18:21 | 44.79466 | 14.18059 | 30945 ft | 410 kts | 307° |
| 2026-04-29 18:21 | 44.81237 | 14.14912 | 31371 ft | 409 kts | 307° |
| 2026-04-29 18:21 | 44.82997 | 14.11781 | 31900 ft | 406 kts | 307° |
| 2026-04-29 18:21 | 44.84743 | 14.08671 | 32394 ft | 404 kts | 306° |
| 2026-04-29 18:22 | 44.86484 | 14.05569 | 32838 ft | 403 kts | 306° |
| 2026-04-29 18:22 | 44.88217 | 14.02475 | 33265 ft | 402 kts | 306° |
| 2026-04-29 18:22 | 44.89948 | 13.99382 | 33713 ft | 401 kts | 306° |
| 2026-04-29 18:22 | 44.91673 | 13.96296 | 34147 ft | 400 kts | 306° |
| 2026-04-29 18:23 | 44.93386 | 13.93228 | 34591 ft | 396 kts | 306° |
| 2026-04-29 18:23 | 44.95086 | 13.90180 | 34976 ft | 395 kts | 306° |
| 2026-04-29 18:23 | 44.96790 | 13.87123 | 35217 ft | 397 kts | 306° |
| 2026-04-29 18:23 | 44.98502 | 13.84045 | 35449 ft | 399 kts | 306° |
| 2026-04-29 18:24 | 45.00219 | 13.80956 | 35767 ft | 399 kts | 306° |
| 2026-04-29 18:24 | 45.01930 | 13.77874 | 36114 ft | 398 kts | 306° |
| 2026-04-29 18:24 | 45.03640 | 13.74793 | 36406 ft | 399 kts | 306° |
| 2026-04-29 18:24 | 45.05353 | 13.71700 | 36681 ft | 400 kts | 306° |
| 2026-04-29 18:25 | 45.07068 | 13.68602 | 36980 ft | 400 kts | 306° |
| 2026-04-29 18:25 | 45.08781 | 13.65502 | 37293 ft | 400 kts | 306° |
| 2026-04-29 18:25 | 45.10494 | 13.62401 | 37576 ft | 400 kts | 306° |
| 2026-04-29 18:25 | 45.12206 | 13.59295 | 37855 ft | 401 kts | 306° |
| 2026-04-29 18:26 | 45.13922 | 13.56181 | 38153 ft | 401 kts | 306° |
| 2026-04-29 18:26 | 45.15636 | 13.53067 | 38411 ft | 401 kts | 306° |
| 2026-04-29 18:26 | 45.17351 | 13.49947 | 38662 ft | 402 kts | 306° |
| 2026-04-29 18:26 | 45.19069 | 13.46819 | 38930 ft | 401 kts | 306° |
| 2026-04-29 18:27 | 45.20777 | 13.43705 | 39163 ft | 400 kts | 306° |
| 2026-04-29 18:27 | 45.22489 | 13.40581 | 39331 ft | 401 kts | 306° |
| 2026-04-29 18:27 | 45.24204 | 13.37446 | 39481 ft | 403 kts | 306° |
| 2026-04-29 18:27 | 45.25922 | 13.34302 | 39668 ft | 403 kts | 306° |
| 2026-04-29 18:28 | 45.27619 | 13.31194 | 39882 ft | 403 kts | 306° |
| 2026-04-29 18:28 | 45.29356 | 13.28012 | 40054 ft | 404 kts | 306° |
| 2026-04-29 18:28 | 45.31093 | 13.24926 | 40084 ft | 407 kts | 310° |
| 2026-04-29 18:29 | 45.35301 | 13.19400 | 40098 ft | 416 kts | 316° |
| 2026-04-29 18:29 | 45.39673 | 13.13978 | 40114 ft | 419 kts | 316° |
| 2026-04-29 18:30 | 45.43359 | 13.09375 | 40126 ft | 420 kts | 316° |
| 2026-04-29 18:30 | 45.47665 | 13.03957 | 40105 ft | 410 kts | 316° |
| 2026-04-29 18:31 | 45.51917 | 12.98578 | 40125 ft | 408 kts | 316° |
| 2026-04-29 18:31 | 45.56162 | 12.93189 | 40115 ft | 409 kts | 316° |
| 2026-04-29 18:32 | 45.60409 | 12.87786 | 40125 ft | 409 kts | 316° |
| 2026-04-29 18:32 | 45.66696 | 12.79768 | 40134 ft | 411 kts | 316° |
| 2026-04-29 18:33 | 45.70965 | 12.74310 | 40137 ft | 412 kts | 316° |
| 2026-04-29 18:33 | 45.75273 | 12.68793 | 40134 ft | 414 kts | 316° |
| 2026-04-29 18:34 | 45.78837 | 12.64216 | 40126 ft | 414 kts | 316° |
| 2026-04-29 18:34 | 45.83830 | 12.57795 | 40143 ft | 415 kts | 316° |
| 2026-04-29 18:35 | 45.88131 | 12.52248 | 40166 ft | 416 kts | 316° |
| 2026-04-29 18:35 | 45.92437 | 12.46685 | 40153 ft | 417 kts | 316° |
| 2026-04-29 18:36 | 45.96754 | 12.41096 | 40145 ft | 418 kts | 316° |
| 2026-04-29 18:36 | 46.01066 | 12.35499 | 40129 ft | 418 kts | 316° |
| 2026-04-29 18:37 | 46.05376 | 12.29891 | 40144 ft | 417 kts | 316° |
| 2026-04-29 18:37 | 46.09681 | 12.24279 | 40140 ft | 418 kts | 316° |
| 2026-04-29 18:38 | 46.13983 | 12.18660 | 40143 ft | 417 kts | 316° |
| 2026-04-29 18:38 | 46.18269 | 12.13049 | 40142 ft | 416 kts | 316° |
| 2026-04-29 18:39 | 46.22545 | 12.07437 | 40143 ft | 415 kts | 316° |
| 2026-04-29 18:39 | 46.26802 | 12.01836 | 40140 ft | 414 kts | 316° |
| 2026-04-29 18:40 | 46.31047 | 11.96239 | 40151 ft | 413 kts | 316° |
| 2026-04-29 18:40 | 46.35281 | 11.90643 | 40171 ft | 412 kts | 316° |
| 2026-04-29 18:41 | 46.43793 | 11.79497 | 40143 ft | 413 kts | 319° |
| 2026-04-29 18:42 | 46.48305 | 11.74323 | 40136 ft | 414 kts | 321° |
| 2026-04-29 18:42 | 46.52856 | 11.69206 | 40144 ft | 414 kts | 321° |
| 2026-04-29 18:43 | 46.57393 | 11.64042 | 40135 ft | 414 kts | 320° |
| 2026-04-29 18:43 | 46.61916 | 11.58845 | 40139 ft | 415 kts | 320° |
| 2026-04-29 18:44 | 46.66441 | 11.53625 | 40138 ft | 415 kts | 320° |
| 2026-04-29 18:44 | 46.70964 | 11.48396 | 40141 ft | 416 kts | 320° |
| 2026-04-29 18:45 | 46.75493 | 11.43147 | 40117 ft | 416 kts | 320° |
| 2026-04-29 18:45 | 46.79986 | 11.37927 | 40130 ft | 415 kts | 320° |
| 2026-04-29 18:46 | 46.84505 | 11.32667 | 40163 ft | 416 kts | 320° |
| 2026-04-29 18:46 | 46.89055 | 11.27358 | 40145 ft | 417 kts | 320° |
| 2026-04-29 18:47 | 46.93559 | 11.22092 | 40159 ft | 417 kts | 320° |
| 2026-04-29 18:47 | 46.97652 | 11.16108 | 40173 ft | 416 kts | 312° |
| 2026-04-29 18:48 | 47.01559 | 11.09839 | 40155 ft | 416 kts | 312° |
| 2026-04-29 18:48 | 47.05471 | 11.03571 | 40168 ft | 417 kts | 312° |
| 2026-04-29 18:49 | 47.09394 | 10.97304 | 40163 ft | 417 kts | 313° |
| 2026-04-29 18:49 | 47.13328 | 10.91019 | 40163 ft | 418 kts | 313° |
| 2026-04-29 18:50 | 47.17245 | 10.84750 | 40163 ft | 418 kts | 313° |
| 2026-04-29 18:50 | 47.21170 | 10.78452 | 40168 ft | 419 kts | 313° |
| 2026-04-29 18:51 | 47.25105 | 10.72118 | 40170 ft | 419 kts | 313° |
| 2026-04-29 18:51 | 47.29032 | 10.65784 | 40177 ft | 419 kts | 312° |
| 2026-04-29 18:52 | 47.32959 | 10.59433 | 40184 ft | 419 kts | 313° |
| 2026-04-29 18:52 | 47.36887 | 10.53065 | 40180 ft | 420 kts | 313° |
| 2026-04-29 18:53 | 47.40904 | 10.46851 | 40171 ft | 420 kts | 320° |
| 2026-04-29 18:53 | 47.45497 | 10.41564 | 40180 ft | 420 kts | 322° |
| 2026-04-29 18:54 | 47.50154 | 10.36299 | 40174 ft | 422 kts | 322° |
| 2026-04-29 18:54 | 47.54798 | 10.30984 | 40183 ft | 422 kts | 322° |
| 2026-04-29 18:55 | 47.59386 | 10.25686 | 40178 ft | 423 kts | 322° |
| 2026-04-29 18:55 | 47.63948 | 10.20397 | 40176 ft | 423 kts | 322° |
| 2026-04-29 18:56 | 47.68583 | 10.15010 | 40181 ft | 423 kts | 322° |
| 2026-04-29 18:56 | 47.73198 | 10.09637 | 40173 ft | 422 kts | 322° |
| 2026-04-29 18:57 | 47.77817 | 10.04245 | 40179 ft | 422 kts | 322° |
| 2026-04-29 18:57 | 47.82410 | 9.98870 | 40198 ft | 423 kts | 322° |
| 2026-04-29 18:58 | 47.87023 | 9.93459 | 40190 ft | 423 kts | 322° |
| 2026-04-29 18:58 | 47.91642 | 9.88030 | 40199 ft | 423 kts | 322° |
| 2026-04-29 18:59 | 47.96257 | 9.82592 | 40194 ft | 423 kts | 322° |
| 2026-04-29 18:59 | 48.00869 | 9.77144 | 40184 ft | 423 kts | 322° |
| 2026-04-29 19:00 | 48.05476 | 9.71688 | 40201 ft | 422 kts | 322° |
| 2026-04-29 19:00 | 48.10016 | 9.66199 | 40203 ft | 423 kts | 319° |
| 2026-04-29 19:01 | 48.14276 | 9.60134 | 40211 ft | 423 kts | 317° |
| 2026-04-29 19:01 | 48.18468 | 9.53934 | 40211 ft | 423 kts | 317° |
| 2026-04-29 19:02 | 48.21989 | 9.48752 | 40208 ft | 424 kts | 317° |
| 2026-04-29 19:02 | 48.26529 | 9.42113 | 40197 ft | 424 kts | 317° |
| 2026-04-29 19:03 | 48.30760 | 9.35937 | 40208 ft | 425 kts | 317° |
| 2026-04-29 19:03 | 48.34996 | 9.29742 | 40212 ft | 425 kts | 317° |
| 2026-04-29 19:04 | 48.39234 | 9.23530 | 40218 ft | 425 kts | 317° |
| 2026-04-29 19:04 | 48.43499 | 9.17264 | 40219 ft | 426 kts | 317° |
| 2026-04-29 19:05 | 48.47494 | 9.11376 | 40222 ft | 426 kts | 317° |
| 2026-04-29 19:05 | 48.51727 | 9.05124 | 40230 ft | 426 kts | 317° |
| 2026-04-29 19:06 | 48.55933 | 8.98899 | 40231 ft | 426 kts | 317° |
| 2026-04-29 19:07 | 48.62302 | 8.89440 | 40234 ft | 426 kts | 317° |
| 2026-04-29 19:07 | 48.66515 | 8.83163 | 40231 ft | 427 kts | 317° |
| 2026-04-29 19:08 | 48.70721 | 8.76880 | 40227 ft | 426 kts | 317° |
| 2026-04-29 19:08 | 48.74936 | 8.70570 | 40220 ft | 426 kts | 317° |
| 2026-04-29 19:09 | 48.79148 | 8.64249 | 40219 ft | 426 kts | 317° |
| 2026-04-29 19:09 | 48.83349 | 8.57927 | 40226 ft | 425 kts | 317° |
| 2026-04-29 19:10 | 48.87547 | 8.51596 | 40226 ft | 426 kts | 317° |
| 2026-04-29 19:10 | 48.91742 | 8.45253 | 40231 ft | 425 kts | 317° |
| 2026-04-29 19:11 | 48.95933 | 8.38899 | 40223 ft | 425 kts | 317° |
| 2026-04-29 19:11 | 49.00114 | 8.32546 | 40222 ft | 425 kts | 317° |
| 2026-04-29 19:12 | 49.04287 | 8.26189 | 40222 ft | 424 kts | 317° |
| 2026-04-29 19:12 | 49.08452 | 8.19828 | 40229 ft | 423 kts | 317° |
| 2026-04-29 19:13 | 49.12608 | 8.13464 | 40232 ft | 423 kts | 317° |
| 2026-04-29 19:13 | 49.16085 | 8.08126 | 40232 ft | 423 kts | 317° |
| 2026-04-29 19:14 | 49.20226 | 8.01757 | 40233 ft | 423 kts | 317° |
| 2026-04-29 19:14 | 49.24336 | 7.95417 | 40221 ft | 422 kts | 317° |
| 2026-04-29 19:15 | 49.28504 | 7.88973 | 40233 ft | 423 kts | 317° |
| 2026-04-29 19:15 | 49.32641 | 7.82558 | 40239 ft | 424 kts | 317° |
| 2026-04-29 19:16 | 49.36792 | 7.76109 | 40236 ft | 425 kts | 317° |
| 2026-04-29 19:16 | 49.40923 | 7.69669 | 40233 ft | 427 kts | 317° |
| 2026-04-29 19:17 | 49.45119 | 7.63117 | 40234 ft | 428 kts | 317° |
| 2026-04-29 19:17 | 49.49285 | 7.56591 | 40225 ft | 428 kts | 317° |
| 2026-04-29 19:18 | 49.53452 | 7.50049 | 40223 ft | 428 kts | 316° |
| 2026-04-29 19:18 | 49.57620 | 7.43487 | 40251 ft | 429 kts | 316° |
| 2026-04-29 19:19 | 49.61794 | 7.36901 | 40264 ft | 430 kts | 316° |
| 2026-04-29 19:19 | 49.65966 | 7.30293 | 40265 ft | 430 kts | 316° |
| 2026-04-29 19:20 | 49.70140 | 7.23672 | 40257 ft | 430 kts | 316° |
| 2026-04-29 19:20 | 49.74359 | 7.16961 | 40253 ft | 430 kts | 316° |
| 2026-04-29 19:21 | 49.78257 | 7.10146 | 40270 ft | 432 kts | 309° |
| 2026-04-29 19:21 | 49.81804 | 7.02562 | 40247 ft | 433 kts | 308° |
| 2026-04-29 19:22 | 49.85291 | 6.94975 | 40266 ft | 434 kts | 308° |
| 2026-04-29 19:22 | 49.88845 | 6.87384 | 40244 ft | 434 kts | 308° |
| 2026-04-29 19:23 | 49.92413 | 6.79817 | 40233 ft | 435 kts | 309° |
| 2026-04-29 19:23 | 49.95987 | 6.72238 | 40248 ft | 436 kts | 308° |
| 2026-04-29 19:24 | 49.99564 | 6.64626 | 40248 ft | 437 kts | 308° |
| 2026-04-29 19:24 | 50.03139 | 6.56984 | 40239 ft | 437 kts | 309° |
| 2026-04-29 19:25 | 50.06715 | 6.49320 | 40244 ft | 438 kts | 309° |
| 2026-04-29 19:25 | 50.10293 | 6.41634 | 40247 ft | 439 kts | 309° |
| 2026-04-29 19:26 | 50.13875 | 6.33925 | 40244 ft | 439 kts | 308° |
| 2026-04-29 19:26 | 50.17467 | 6.26200 | 40257 ft | 440 kts | 308° |
| 2026-04-29 19:27 | 50.21060 | 6.18449 | 40260 ft | 442 kts | 308° |
| 2026-04-29 19:28 | 50.28326 | 6.02700 | 40248 ft | 435 kts | 308° |
| 2026-04-29 19:28 | 50.30266 | 5.98473 | 39383 ft | 440 kts | 309° |
| 2026-04-29 19:28 | 50.31859 | 5.95000 | 38714 ft | 443 kts | 309° |
| 2026-04-29 19:28 | 50.33659 | 5.91072 | 38007 ft | 444 kts | 309° |
| 2026-04-29 19:29 | 50.35453 | 5.87149 | 37392 ft | 443 kts | 309° |
| 2026-04-29 19:29 | 50.37238 | 5.83238 | 36795 ft | 441 kts | 309° |
| 2026-04-29 19:29 | 50.39021 | 5.79326 | 36328 ft | 438 kts | 309° |
| 2026-04-29 19:29 | 50.40778 | 5.75464 | 35901 ft | 433 kts | 310° |
| 2026-04-29 19:30 | 50.42519 | 5.71632 | 35471 ft | 430 kts | 310° |
| 2026-04-29 19:30 | 50.44280 | 5.67751 | 35034 ft | 427 kts | 310° |
| 2026-04-29 19:30 | 50.45966 | 5.64031 | 34616 ft | 424 kts | 310° |
| 2026-04-29 19:30 | 50.47671 | 5.60265 | 34179 ft | 422 kts | 310° |
| 2026-04-29 19:31 | 50.49348 | 5.56556 | 33687 ft | 419 kts | 310° |
| 2026-04-29 19:31 | 50.51061 | 5.52762 | 33228 ft | 417 kts | 310° |
| 2026-04-29 19:31 | 50.52715 | 5.49092 | 32797 ft | 414 kts | 310° |
| 2026-04-29 19:31 | 50.54369 | 5.45416 | 32381 ft | 411 kts | 310° |
| 2026-04-29 19:32 | 50.55944 | 5.41910 | 31995 ft | 408 kts | 310° |
| 2026-04-29 19:32 | 50.57642 | 5.38126 | 31582 ft | 405 kts | 310° |
| 2026-04-29 19:32 | 50.59261 | 5.34515 | 31187 ft | 403 kts | 310° |
| 2026-04-29 19:32 | 50.60868 | 5.30926 | 30793 ft | 401 kts | 310° |
| 2026-04-29 19:33 | 50.62487 | 5.27291 | 30367 ft | 400 kts | 310° |
| 2026-04-29 19:33 | 50.64000 | 5.23688 | 29919 ft | 399 kts | 307° |
| 2026-04-29 19:33 | 50.65413 | 5.19938 | 29504 ft | 396 kts | 305° |
| 2026-04-29 19:33 | 50.66726 | 5.16345 | 29099 ft | 393 kts | 305° |
| 2026-04-29 19:34 | 50.68137 | 5.12470 | 28671 ft | 390 kts | 304° |
| 2026-04-29 19:34 | 50.69400 | 5.09012 | 28297 ft | 387 kts | 304° |
| 2026-04-29 19:34 | 50.70744 | 5.05353 | 27897 ft | 384 kts | 304° |
| 2026-04-29 19:34 | 50.72106 | 5.01658 | 27509 ft | 381 kts | 304° |
| 2026-04-29 19:35 | 50.73411 | 4.98127 | 27163 ft | 378 kts | 304° |
| 2026-04-29 19:35 | 50.74726 | 4.94571 | 26813 ft | 375 kts | 304° |
| 2026-04-29 19:35 | 50.76047 | 4.91006 | 26362 ft | 375 kts | 304° |
| 2026-04-29 19:35 | 50.77362 | 4.87471 | 25970 ft | 373 kts | 304° |
| 2026-04-29 19:36 | 50.78679 | 4.83940 | 25576 ft | 371 kts | 304° |
| 2026-04-29 19:36 | 50.79990 | 4.80437 | 25304 ft | 367 kts | 304° |
| 2026-04-29 19:36 | 50.81297 | 4.76951 | 25275 ft | 364 kts | 304° |
| 2026-04-29 19:36 | 50.82561 | 4.73576 | 25258 ft | 355 kts | 304° |
| 2026-04-29 19:37 | 50.83792 | 4.70274 | 25246 ft | 343 kts | 304° |
| 2026-04-29 19:37 | 50.84580 | 4.68149 | 25241 ft | 334 kts | 304° |
| 2026-04-29 19:37 | 50.86114 | 4.64013 | 25231 ft | 318 kts | 304° |
| 2026-04-29 19:37 | 50.87220 | 4.61024 | 25060 ft | 312 kts | 305° |
| 2026-04-29 19:38 | 50.88345 | 4.57982 | 24754 ft | 312 kts | 304° |
| 2026-04-29 19:38 | 50.89426 | 4.55086 | 24371 ft | 316 kts | 305° |
| 2026-04-29 19:38 | 50.90686 | 4.52222 | 23795 ft | 323 kts | 311° |
| 2026-04-29 19:38 | 50.92148 | 4.49357 | 22611 ft | 347 kts | 313° |
| 2026-04-29 19:39 | 50.93740 | 4.46355 | 21743 ft | 361 kts | 313° |
| 2026-04-29 19:39 | 50.95348 | 4.43287 | 21291 ft | 361 kts | 313° |
| 2026-04-29 19:39 | 50.96934 | 4.40224 | 20814 ft | 360 kts | 312° |
| 2026-04-29 19:39 | 50.98530 | 4.37102 | 20208 ft | 365 kts | 312° |
| 2026-04-29 19:40 | 51.00117 | 4.33979 | 19787 ft | 363 kts | 312° |
| 2026-04-29 19:40 | 51.01692 | 4.30855 | 19395 ft | 360 kts | 312° |
| 2026-04-29 19:40 | 51.03246 | 4.27763 | 19012 ft | 355 kts | 312° |
| 2026-04-29 19:40 | 51.04763 | 4.24733 | 18649 ft | 346 kts | 312° |
| 2026-04-29 19:41 | 51.06242 | 4.21773 | 18237 ft | 338 kts | 312° |
| 2026-04-29 19:41 | 51.07683 | 4.18886 | 17852 ft | 330 kts | 312° |
| 2026-04-29 19:41 | 51.09090 | 4.16063 | 17497 ft | 321 kts | 312° |
| 2026-04-29 19:41 | 51.10464 | 4.13305 | 17146 ft | 314 kts | 312° |
| 2026-04-29 19:42 | 51.11812 | 4.10598 | 16817 ft | 312 kts | 312° |
| 2026-04-29 19:42 | 51.12251 | 4.09717 | 16714 ft | 313 kts | 312° |
| 2026-04-29 19:42 | 51.14546 | 4.05109 | 16307 ft | 323 kts | 312° |
| 2026-04-29 19:42 | 51.15920 | 4.02340 | 16278 ft | 321 kts | 312° |
| 2026-04-29 19:43 | 51.17282 | 3.99588 | 16247 ft | 310 kts | 312° |
| 2026-04-29 19:43 | 51.18597 | 3.96971 | 16234 ft | 295 kts | 317° |
| 2026-04-29 19:43 | 51.20224 | 3.95275 | 16118 ft | 273 kts | 350° |
| 2026-04-29 19:43 | 51.22077 | 3.95079 | 15617 ft | 270 kts | 10° |
| 2026-04-29 19:44 | 51.23924 | 3.95757 | 15422 ft | 276 kts | 22° |
| 2026-04-29 19:44 | 51.25756 | 3.96760 | 15118 ft | 279 kts | 23° |
| 2026-04-29 19:44 | 51.27593 | 3.97819 | 14611 ft | 281 kts | 24° |
| 2026-04-29 19:44 | 51.29428 | 3.98883 | 14102 ft | 280 kts | 24° |
| 2026-04-29 19:45 | 51.31262 | 3.99940 | 13522 ft | 279 kts | 24° |
| 2026-04-29 19:45 | 51.33085 | 4.00984 | 12978 ft | 278 kts | 24° |
| 2026-04-29 19:45 | 51.34902 | 4.02020 | 12426 ft | 276 kts | 24° |
| 2026-04-29 19:45 | 51.36728 | 4.02907 | 11676 ft | 283 kts | 18° |
| 2026-04-29 19:46 | 51.38659 | 4.03617 | 11033 ft | 285 kts | 17° |
| 2026-04-29 19:46 | 51.40586 | 4.04278 | 10490 ft | 282 kts | 17° |
| 2026-04-29 19:46 | 51.42503 | 4.04936 | 9894 ft | 282 kts | 17° |
| 2026-04-29 19:46 | 51.44410 | 4.05602 | 9292 ft | 280 kts | 17° |
| 2026-04-29 19:47 | 51.46316 | 4.06278 | 8866 ft | 281 kts | 17° |
| 2026-04-29 19:47 | 51.48224 | 4.06961 | 8503 ft | 280 kts | 17° |
| 2026-04-29 19:47 | 51.50121 | 4.07644 | 8157 ft | 278 kts | 17° |
| 2026-04-29 19:47 | 51.52000 | 4.08324 | 7811 ft | 277 kts | 17° |
| 2026-04-29 19:48 | 51.53872 | 4.09006 | 7480 ft | 275 kts | 17° |
| 2026-04-29 19:48 | 51.55130 | 4.09465 | 7269 ft | 273 kts | 17° |
| 2026-04-29 19:48 | 51.56976 | 4.10141 | 6953 ft | 272 kts | 18° |
| 2026-04-29 19:48 | 51.58822 | 4.10818 | 6629 ft | 271 kts | 17° |
| 2026-04-29 19:49 | 51.60653 | 4.11490 | 6283 ft | 270 kts | 17° |
| 2026-04-29 19:49 | 51.62476 | 4.12160 | 5958 ft | 268 kts | 18° |
| 2026-04-29 19:49 | 51.64290 | 4.12827 | 5567 ft | 269 kts | 18° |
| 2026-04-29 19:49 | 51.66139 | 4.13511 | 5072 ft | 275 kts | 17° |
| 2026-04-29 19:50 | 51.67979 | 4.14189 | 4695 ft | 274 kts | 18° |
| 2026-04-29 19:50 | 51.69832 | 4.14872 | 4385 ft | 271 kts | 18° |
| 2026-04-29 19:50 | 51.71635 | 4.15533 | 4256 ft | 261 kts | 18° |
| 2026-04-29 19:50 | 51.73383 | 4.16175 | 4066 ft | 255 kts | 19° |
| 2026-04-29 19:51 | 51.75092 | 4.16805 | 3831 ft | 248 kts | 19° |
| 2026-04-29 19:51 | 51.76752 | 4.17419 | 3573 ft | 241 kts | 19° |
| 2026-04-29 19:51 | 51.78363 | 4.18014 | 3357 ft | 233 kts | 19° |
| 2026-04-29 19:51 | 51.79917 | 4.18588 | 3146 ft | 226 kts | 20° |
| 2026-04-29 19:52 | 51.81420 | 4.19145 | 2935 ft | 218 kts | 20° |
| 2026-04-29 19:52 | 51.82873 | 4.19684 | 2729 ft | 210 kts | 21° |
| 2026-04-29 19:52 | 51.84267 | 4.20199 | 2528 ft | 202 kts | 22° |
| 2026-04-29 19:52 | 51.85620 | 4.20702 | 2370 ft | 197 kts | 23° |
| 2026-04-29 19:53 | 51.86764 | 4.21633 | 2230 ft | 174 kts | 59° |
| 2026-04-29 19:53 | 51.87356 | 4.23225 | 2119 ft | 161 kts | 63° |
| 2026-04-29 19:53 | 51.87977 | 4.24688 | 2030 ft | 156 kts | 62° |
| 2026-04-29 19:53 | 51.88574 | 4.26141 | 2007 ft | 154 kts | 63° |
| 2026-04-29 19:54 | 51.89707 | 4.28978 | 1982 ft | 139 kts | 64° |
| 2026-04-29 19:54 | 51.90217 | 4.30264 | 1859 ft | 134 kts | 65° |
| 2026-04-29 19:54 | 51.90721 | 4.31539 | 1690 ft | 135 kts | 64° |
| 2026-04-29 19:55 | 51.91228 | 4.32816 | 1496 ft | 132 kts | 63° |
| 2026-04-29 19:55 | 51.91696 | 4.33989 | 1324 ft | 117 kts | 63° |
| 2026-04-29 19:55 | 51.92118 | 4.35052 | 1171 ft | 109 kts | 63° |
| 2026-04-29 19:55 | 51.92528 | 4.36086 | 1029 ft | 110 kts | 63° |
| 2026-04-29 19:56 | 51.92951 | 4.37134 | 862 ft | 115 kts | 62° |
| 2026-04-29 19:56 | 51.93392 | 4.38259 | 726 ft | 123 kts | 61° |
| 2026-04-29 19:56 | 51.93861 | 4.39435 | 567 ft | 124 kts | 60° |
| 2026-04-29 19:56 | 51.94330 | 4.40620 | 396 ft | 126 kts | 60° |
| 2026-04-29 19:57 | 51.94797 | 4.41797 | 225 ft | 124 kts | 59° |
| 2026-04-29 19:57 | 51.95114 | 4.42583 | 104 ft | 122 kts | 58° |
| 2026-04-29 19:57 | 51.95682 | 4.44019 | 0 ft | 87 kts | 57° |
| 2026-04-29 19:57 | 51.95918 | 4.44606 | -2 ft | 51 kts | 58° |
| 2026-04-29 19:58 | 51.96093 | 4.45046 | 1 ft | 39 kts | 57° |
| 2026-04-29 19:58 | 51.96146 | 4.45309 | 1 ft | 22 kts | 121° |
| 2026-04-29 19:58 | 51.96044 | 4.45384 | 0 ft | 17 kts | 215° |
| 2026-04-29 19:58 | 51.95973 | 4.45230 | 0 ft | 17 kts | 237° |
| 2026-04-29 19:59 | 51.95905 | 4.45057 | 0 ft | 20 kts | 237° |
| 2026-04-29 19:59 | 51.95825 | 4.44856 | 0 ft | 22 kts | 237° |
| 2026-04-29 19:59 | 51.95744 | 4.44652 | 0 ft | 21 kts | 236° |
| 2026-04-29 19:59 | 51.95665 | 4.44456 | 0 ft | 21 kts | 237° |
| 2026-04-29 20:00 | 51.95589 | 4.44263 | 0 ft | 20 kts | 236° |
| 2026-04-29 20:00 | 51.95515 | 4.44077 | 0 ft | 19 kts | 237° |
| 2026-04-29 20:00 | 51.95443 | 4.43898 | 0 ft | 19 kts | 236° |
| 2026-04-29 20:00 | 51.95373 | 4.43723 | 1 ft | 18 kts | 238° |
| 2026-04-29 20:01 | 51.95306 | 4.43555 | 1 ft | 17 kts | 237° |
| 2026-04-29 20:01 | 51.95229 | 4.43528 | 0 ft | 13 kts | 150° |
| 2026-04-29 20:01 | 51.95141 | 4.43618 | 0 ft | 17 kts | 147° |
| 2026-04-29 20:01 | 51.95033 | 4.43731 | 1 ft | 18 kts | 147° |
| 2026-04-29 20:02 | 51.94965 | 4.43775 | 0 ft | 8 kts | 207° |
| 2026-04-29 20:02 | 51.94924 | 4.43690 | 0 ft | 11 kts | 237° |
| 2026-04-29 20:02 | 51.94918 | 4.43615 | 0 ft | 7 kts | 313° |
| 2026-04-29 20:02 | 51.94935 | 4.43593 | 1 ft | 1 kts | 326° |
| 2026-04-29 20:03 | 51.94941 | 4.43587 | 0 ft | 0 kts | 326° |
| 2026-04-29 20:03 | 51.94942 | 4.43586 | 0 ft | 0 kts | 326° |